Дата Пункты Температура Давл., мм. Влажн., % Ветер Погодные явления
Воздуха Воды Направл. Скорость
10.07.18 06:00 Одесса 29.0 23.0 754 42 Ю 2 18 ЧАСОВ
10.07.18 03:00 Одесса 28.0 23.0 755 50 Ю-В 1 15 ЧАСОВ
10.07.18 12:00 Одесса 27.0 23.0 756 62 Ю-В 2 12 ЧАСОВ
10.07.18 09:00 Одесса 24.0 23.0 755 66 С-В 2 09 ЧАСОВ
10.07.18 06:00 Одесса 20.0 23.0 755 79 С 0 06 ЧАСОВ
10.07.18 03:00 Одесса 21.0 23.0 755 74 С 0 03 ЧАСА
09.07.18 09:00 Одесса 25.0 23.0 755 57 С-З 1 21 ЧАС
09.07.18 06:00 Одесса 28.0 23.0 755 48 С-З 1 18 ЧАСОВ
09.07.18 03:00 Одесса 28.0 23.0 755 48 Ю 1 15 ЧАСОВ
09.07.18 12:00 Одесса 25.0 22.0 755 61 В 1 12 ЧАСОВ
09.07.18 09:00 Одесса 24.0 22.0 755 60 С-В 3 09 ЧАСОВ
09.07.18 06:00 Одесса 21.0 22.0 755 66 С 0 06 ЧАСОВ
09.07.18 03:00 Одесса 21.0 22.0 755 64 С 0 03 ЧАСА
08.07.18 09:00 Одесса 24.0 23.0 754 63 С 0 21 ЧАС
08.07.18 06:00 Одесса 27.0 23.0 754 47 С 0 18 ЧАСОВ
08.07.18 03:00 Одесса 27.0 23.0 754 50 С 0 15 ЧАСОВ
08.07.18 12:00 Одесса 25.0 22.0 755 63 С-В 2 12 ЧАСОВ
08.07.18 09:00 Одесса 23.0 22.0 754 68 С 1 09 ЧАСОВ
08.07.18 06:00 Одесса 21.0 21.0 754 74 С-З 2 06 ЧАСОВ
08.07.18 03:00 Одесса 21.0 21.0 754 70 С-З 1 03 ЧАСА
Количество строк
1 2 3 4 5 6 7 8 9 10
Page 3 of 382